sensor_id;sensor_type;location;lat;lon;timestamp;P1;durP1;ratioP1;P2;durP2;ratioP2
1995;SDS011;38556;47.068;15.408;2023-07-08T00:00:16;20.13;;;18.93;;
1995;SDS011;38556;47.068;15.408;2023-07-08T00:02:45;20.83;;;19.53;;
1995;SDS011;38556;47.068;15.408;2023-07-08T00:05:15;21.10;;;19.90;;
1995;SDS011;38556;47.068;15.408;2023-07-08T00:07:44;20.20;;;19.00;;
1995;SDS011;38556;47.068;15.408;2023-07-08T00:10:13;20.50;;;19.30;;
1995;SDS011;38556;47.068;15.408;2023-07-08T00:12:42;20.67;;;19.57;;
1995;SDS011;38556;47.068;15.408;2023-07-08T00:15:10;20.60;;;19.33;;
1995;SDS011;38556;47.068;15.408;2023-07-08T00:17:38;20.20;;;19.10;;
1995;SDS011;38556;47.068;15.408;2023-07-08T00:20:10;20.57;;;19.37;;
1995;SDS011;38556;47.068;15.408;2023-07-08T00:22:44;21.13;;;19.93;;
1995;SDS011;38556;47.068;15.408;2023-07-08T00:25:15;20.90;;;19.67;;
1995;SDS011;38556;47.068;15.408;2023-07-08T00:27:45;21.33;;;20.03;;
1995;SDS011;38556;47.068;15.408;2023-07-08T00:30:17;20.50;;;19.40;;
1995;SDS011;38556;47.068;15.408;2023-07-08T00:32:47;20.57;;;19.47;;
1995;SDS011;38556;47.068;15.408;2023-07-08T00:35:21;20.70;;;19.50;;
1995;SDS011;38556;47.068;15.408;2023-07-08T00:37:50;21.57;;;20.00;;
1995;SDS011;38556;47.068;15.408;2023-07-08T00:40:19;20.67;;;19.57;;
1995;SDS011;38556;47.068;15.408;2023-07-08T00:42:48;20.37;;;19.17;;
1995;SDS011;38556;47.068;15.408;2023-07-08T00:45:17;20.60;;;19.40;;
1995;SDS011;38556;47.068;15.408;2023-07-08T00:47:53;21.10;;;19.87;;
1995;SDS011;38556;47.068;15.408;2023-07-08T00:50:34;21.07;;;19.70;;
1995;SDS011;38556;47.068;15.408;2023-07-08T00:55:53;21.80;;;20.50;;
1995;SDS011;38556;47.068;15.408;2023-07-08T00:58:29;21.20;;;19.90;;
1995;SDS011;38556;47.068;15.408;2023-07-08T01:00:59;20.87;;;19.67;;
1995;SDS011;38556;47.068;15.408;2023-07-08T01:03:30;20.77;;;19.67;;
1995;SDS011;38556;47.068;15.408;2023-07-08T01:06:02;21.17;;;19.80;;
1995;SDS011;38556;47.068;15.408;2023-07-08T01:08:34;20.70;;;19.50;;
1995;SDS011;38556;47.068;15.408;2023-07-08T01:11:03;20.67;;;19.47;;
1995;SDS011;38556;47.068;15.408;2023-07-08T01:13:32;20.70;;;19.50;;
1995;SDS011;38556;47.068;15.408;2023-07-08T01:16:03;20.80;;;19.60;;
1995;SDS011;38556;47.068;15.408;2023-07-08T01:18:32;20.97;;;19.40;;
1995;SDS011;38556;47.068;15.408;2023-07-08T01:21:02;20.60;;;19.50;;
1995;SDS011;38556;47.068;15.408;2023-07-08T01:23:33;19.27;;;18.27;;
1995;SDS011;38556;47.068;15.408;2023-07-08T01:26:01;21.57;;;20.13;;
1995;SDS011;38556;47.068;15.408;2023-07-08T01:28:28;20.53;;;19.40;;
1995;SDS011;38556;47.068;15.408;2023-07-08T01:30:57;20.03;;;18.93;;
1995;SDS011;38556;47.068;15.408;2023-07-08T01:33:25;21.10;;;19.57;;
1995;SDS011;38556;47.068;15.408;2023-07-08T01:35:52;21.00;;;19.80;;
1995;SDS011;38556;47.068;15.408;2023-07-08T01:38:22;20.60;;;19.50;;
1995;SDS011;38556;47.068;15.408;2023-07-08T01:40:54;19.63;;;18.53;;
1995;SDS011;38556;47.068;15.408;2023-07-08T01:43:22;20.07;;;18.87;;
1995;SDS011;38556;47.068;15.408;2023-07-08T01:45:49;21.00;;;19.60;;
1995;SDS011;38556;47.068;15.408;2023-07-08T01:48:19;20.90;;;19.50;;
1995;SDS011;38556;47.068;15.408;2023-07-08T01:50:49;19.90;;;18.90;;
1995;SDS011;38556;47.068;15.408;2023-07-08T01:53:26;21.40;;;20.00;;
1995;SDS011;38556;47.068;15.408;2023-07-08T01:55:57;20.80;;;19.67;;
1995;SDS011;38556;47.068;15.408;2023-07-08T01:58:24;21.70;;;20.30;;
1995;SDS011;38556;47.068;15.408;2023-07-08T02:00:52;21.30;;;20.00;;
1995;SDS011;38556;47.068;15.408;2023-07-08T02:03:19;20.47;;;19.37;;
1995;SDS011;38556;47.068;15.408;2023-07-08T02:05:47;21.20;;;20.00;;
1995;SDS011;38556;47.068;15.408;2023-07-08T02:08:14;20.63;;;19.43;;
1995;SDS011;38556;47.068;15.408;2023-07-08T02:10:42;21.13;;;19.83;;
1995;SDS011;38556;47.068;15.408;2023-07-08T02:13:13;21.83;;;20.57;;
1995;SDS011;38556;47.068;15.408;2023-07-08T02:15:40;21.97;;;20.77;;
1995;SDS011;38556;47.068;15.408;2023-07-08T02:18:08;22.00;;;20.50;;
1995;SDS011;38556;47.068;15.408;2023-07-08T02:20:34;21.83;;;20.53;;
1995;SDS011;38556;47.068;15.408;2023-07-08T02:23:01;22.23;;;21.03;;
1995;SDS011;38556;47.068;15.408;2023-07-08T02:25:29;21.10;;;19.90;;
1995;SDS011;38556;47.068;15.408;2023-07-08T02:27:56;21.90;;;20.67;;
1995;SDS011;38556;47.068;15.408;2023-07-08T02:30:25;20.40;;;19.20;;
1995;SDS011;38556;47.068;15.408;2023-07-08T02:32:53;20.70;;;19.50;;
1995;SDS011;38556;47.068;15.408;2023-07-08T02:35:23;21.20;;;20.00;;
1995;SDS011;38556;47.068;15.408;2023-07-08T02:37:52;21.10;;;20.00;;
1995;SDS011;38556;47.068;15.408;2023-07-08T02:40:19;21.33;;;20.03;;
1995;SDS011;38556;47.068;15.408;2023-07-08T02:42:47;20.30;;;19.20;;
1995;SDS011;38556;47.068;15.408;2023-07-08T02:45:15;21.43;;;19.83;;
1995;SDS011;38556;47.068;15.408;2023-07-08T02:47:44;21.50;;;20.20;;
1995;SDS011;38556;47.068;15.408;2023-07-08T02:50:12;21.40;;;20.20;;
1995;SDS011;38556;47.068;15.408;2023-07-08T02:52:39;21.30;;;20.10;;
1995;SDS011;38556;47.068;15.408;2023-07-08T02:55:06;20.97;;;19.77;;
1995;SDS011;38556;47.068;15.408;2023-07-08T02:57:35;21.53;;;20.23;;
1995;SDS011;38556;47.068;15.408;2023-07-08T03:00:02;20.97;;;19.77;;
1995;SDS011;38556;47.068;15.408;2023-07-08T03:02:31;20.63;;;19.43;;
1995;SDS011;38556;47.068;15.408;2023-07-08T03:05:00;21.20;;;19.90;;
1995;SDS011;38556;47.068;15.408;2023-07-08T03:07:30;20.90;;;19.60;;
1995;SDS011;38556;47.068;15.408;2023-07-08T03:09:58;20.80;;;19.60;;
1995;SDS011;38556;47.068;15.408;2023-07-08T03:12:25;20.37;;;19.20;;
1995;SDS011;38556;47.068;15.408;2023-07-08T03:14:52;21.00;;;19.80;;
1995;SDS011;38556;47.068;15.408;2023-07-08T03:17:19;20.87;;;19.70;;
1995;SDS011;38556;47.068;15.408;2023-07-08T03:19:46;21.27;;;19.87;;
1995;SDS011;38556;47.068;15.408;2023-07-08T03:22:16;21.47;;;20.27;;
1995;SDS011;38556;47.068;15.408;2023-07-08T03:24:43;20.90;;;19.70;;
1995;SDS011;38556;47.068;15.408;2023-07-08T03:27:12;21.17;;;19.87;;
1995;SDS011;38556;47.068;15.408;2023-07-08T03:29:40;21.03;;;19.73;;
1995;SDS011;38556;47.068;15.408;2023-07-08T03:32:08;20.63;;;19.50;;
1995;SDS011;38556;47.068;15.408;2023-07-08T03:34:37;20.50;;;19.30;;
1995;SDS011;38556;47.068;15.408;2023-07-08T03:37:05;21.83;;;20.43;;
1995;SDS011;38556;47.068;15.408;2023-07-08T03:39:34;21.70;;;20.30;;
1995;SDS011;38556;47.068;15.408;2023-07-08T03:42:01;20.97;;;19.60;;
1995;SDS011;38556;47.068;15.408;2023-07-08T03:44:30;20.13;;;19.07;;
1995;SDS011;38556;47.068;15.408;2023-07-08T03:46:57;21.37;;;20.07;;
1995;SDS011;38556;47.068;15.408;2023-07-08T03:49:24;21.80;;;20.37;;
1995;SDS011;38556;47.068;15.408;2023-07-08T03:51:52;21.20;;;20.03;;
1995;SDS011;38556;47.068;15.408;2023-07-08T03:54:21;21.00;;;19.80;;
1995;SDS011;38556;47.068;15.408;2023-07-08T03:56:51;21.60;;;20.20;;
1995;SDS011;38556;47.068;15.408;2023-07-08T03:59:18;21.73;;;20.43;;
1995;SDS011;38556;47.068;15.408;2023-07-08T04:01:45;24.10;;;22.70;;
1995;SDS011;38556;47.068;15.408;2023-07-08T04:04:14;24.57;;;22.90;;
1995;SDS011;38556;47.068;15.408;2023-07-08T04:06:41;22.80;;;21.53;;
1995;SDS011;38556;47.068;15.408;2023-07-08T04:09:10;22.93;;;21.67;;
1995;SDS011;38556;47.068;15.408;2023-07-08T04:11:38;22.50;;;21.20;;
1995;SDS011;38556;47.068;15.408;2023-07-08T04:14:07;23.90;;;22.60;;
1995;SDS011;38556;47.068;15.408;2023-07-08T04:16:42;23.70;;;22.30;;
1995;SDS011;38556;47.068;15.408;2023-07-08T04:19:13;23.60;;;22.20;;
1995;SDS011;38556;47.068;15.408;2023-07-08T04:21:41;22.77;;;21.50;;
1995;SDS011;38556;47.068;15.408;2023-07-08T04:24:10;24.50;;;23.10;;
1995;SDS011;38556;47.068;15.408;2023-07-08T04:26:38;22.90;;;21.70;;
1995;SDS011;38556;47.068;15.408;2023-07-08T04:29:08;23.23;;;21.77;;
1995;SDS011;38556;47.068;15.408;2023-07-08T04:31:37;24.20;;;22.90;;
1995;SDS011;38556;47.068;15.408;2023-07-08T04:34:05;23.17;;;21.90;;
1995;SDS011;38556;47.068;15.408;2023-07-08T04:36:32;24.33;;;22.93;;
1995;SDS011;38556;47.068;15.408;2023-07-08T04:39:00;23.40;;;22.00;;
1995;SDS011;38556;47.068;15.408;2023-07-08T04:41:27;24.93;;;23.47;;
1995;SDS011;38556;47.068;15.408;2023-07-08T04:43:54;24.53;;;23.03;;
1995;SDS011;38556;47.068;15.408;2023-07-08T04:46:27;25.17;;;23.57;;
1995;SDS011;38556;47.068;15.408;2023-07-08T04:49:02;24.60;;;23.10;;
1995;SDS011;38556;47.068;15.408;2023-07-08T04:51:30;24.63;;;23.13;;
1995;SDS011;38556;47.068;15.408;2023-07-08T04:53:58;27.47;;;25.67;;
1995;SDS011;38556;47.068;15.408;2023-07-08T04:56:26;24.37;;;23.00;;
1995;SDS011;38556;47.068;15.408;2023-07-08T04:59:02;25.17;;;23.57;;
1995;SDS011;38556;47.068;15.408;2023-07-08T05:01:32;24.27;;;22.83;;
1995;SDS011;38556;47.068;15.408;2023-07-08T05:03:59;24.13;;;22.53;;
1995;SDS011;38556;47.068;15.408;2023-07-08T05:06:27;25.13;;;23.57;;
1995;SDS011;38556;47.068;15.408;2023-07-08T05:08:54;24.60;;;23.10;;
1995;SDS011;38556;47.068;15.408;2023-07-08T05:11:21;24.63;;;23.07;;
1995;SDS011;38556;47.068;15.408;2023-07-08T05:13:48;23.80;;;22.37;;
1995;SDS011;38556;47.068;15.408;2023-07-08T05:16:16;25.70;;;23.90;;
1995;SDS011;38556;47.068;15.408;2023-07-08T05:18:45;23.80;;;22.40;;
1995;SDS011;38556;47.068;15.408;2023-07-08T05:21:13;24.20;;;22.80;;
1995;SDS011;38556;47.068;15.408;2023-07-08T05:23:41;24.10;;;22.60;;
1995;SDS011;38556;47.068;15.408;2023-07-08T05:26:10;23.93;;;22.63;;
1995;SDS011;38556;47.068;15.408;2023-07-08T05:28:37;25.10;;;23.50;;
1995;SDS011;38556;47.068;15.408;2023-07-08T05:31:05;23.50;;;22.20;;
1995;SDS011;38556;47.068;15.408;2023-07-08T05:33:32;25.10;;;23.50;;
1995;SDS011;38556;47.068;15.408;2023-07-08T05:36:01;25.43;;;23.67;;
1995;SDS011;38556;47.068;15.408;2023-07-08T05:38:28;25.23;;;23.53;;
1995;SDS011;38556;47.068;15.408;2023-07-08T05:40:56;23.50;;;22.20;;
1995;SDS011;38556;47.068;15.408;2023-07-08T05:43:25;23.63;;;22.23;;
1995;SDS011;38556;47.068;15.408;2023-07-08T05:45:57;24.00;;;22.50;;
1995;SDS011;38556;47.068;15.408;2023-07-08T05:48:25;25.03;;;23.30;;
1995;SDS011;38556;47.068;15.408;2023-07-08T05:50:52;24.83;;;23.30;;
1995;SDS011;38556;47.068;15.408;2023-07-08T05:53:21;26.10;;;24.30;;
1995;SDS011;38556;47.068;15.408;2023-07-08T05:55:49;26.47;;;24.77;;
1995;SDS011;38556;47.068;15.408;2023-07-08T05:58:17;25.00;;;23.20;;
1995;SDS011;38556;47.068;15.408;2023-07-08T06:00:44;24.70;;;22.83;;
1995;SDS011;38556;47.068;15.408;2023-07-08T06:03:12;24.17;;;22.67;;
1995;SDS011;38556;47.068;15.408;2023-07-08T06:05:39;23.30;;;21.67;;
1995;SDS011;38556;47.068;15.408;2023-07-08T06:08:07;24.43;;;22.93;;
1995;SDS011;38556;47.068;15.408;2023-07-08T06:10:40;24.50;;;22.60;;
1995;SDS011;38556;47.068;15.408;2023-07-08T06:13:09;23.70;;;22.40;;
1995;SDS011;38556;47.068;15.408;2023-07-08T06:15:37;25.40;;;23.50;;
1995;SDS011;38556;47.068;15.408;2023-07-08T06:18:04;23.27;;;21.97;;
1995;SDS011;38556;47.068;15.408;2023-07-08T06:20:31;24.03;;;22.47;;
1995;SDS011;38556;47.068;15.408;2023-07-08T06:22:59;23.87;;;22.37;;
1995;SDS011;38556;47.068;15.408;2023-07-08T06:25:27;24.80;;;23.20;;
1995;SDS011;38556;47.068;15.408;2023-07-08T06:27:56;24.07;;;22.77;;
1995;SDS011;38556;47.068;15.408;2023-07-08T06:30:23;24.17;;;22.57;;
1995;SDS011;38556;47.068;15.408;2023-07-08T06:32:50;24.30;;;22.90;;
1995;SDS011;38556;47.068;15.408;2023-07-08T06:35:18;22.60;;;21.30;;
1995;SDS011;38556;47.068;15.408;2023-07-08T06:37:45;24.43;;;23.03;;
1995;SDS011;38556;47.068;15.408;2023-07-08T06:40:13;24.17;;;22.60;;
1995;SDS011;38556;47.068;15.408;2023-07-08T06:42:40;23.90;;;22.50;;
1995;SDS011;38556;47.068;15.408;2023-07-08T06:45:09;23.63;;;22.23;;
1995;SDS011;38556;47.068;15.408;2023-07-08T06:47:37;23.40;;;22.10;;
1995;SDS011;38556;47.068;15.408;2023-07-08T06:50:04;23.30;;;22.00;;
1995;SDS011;38556;47.068;15.408;2023-07-08T06:52:33;23.13;;;21.80;;
1995;SDS011;38556;47.068;15.408;2023-07-08T06:55:03;22.27;;;21.03;;
1995;SDS011;38556;47.068;15.408;2023-07-08T06:57:33;23.70;;;22.40;;
1995;SDS011;38556;47.068;15.408;2023-07-08T07:00:00;23.30;;;21.80;;
1995;SDS011;38556;47.068;15.408;2023-07-08T07:02:29;23.70;;;22.30;;
1995;SDS011;38556;47.068;15.408;2023-07-08T07:04:57;24.20;;;22.70;;
1995;SDS011;38556;47.068;15.408;2023-07-08T07:07:24;22.70;;;21.40;;
1995;SDS011;38556;47.068;15.408;2023-07-08T07:09:51;22.27;;;20.83;;
1995;SDS011;38556;47.068;15.408;2023-07-08T07:12:19;23.33;;;22.03;;
1995;SDS011;38556;47.068;15.408;2023-07-08T07:14:47;24.50;;;23.10;;
1995;SDS011;38556;47.068;15.408;2023-07-08T07:17:15;23.63;;;21.90;;
1995;SDS011;38556;47.068;15.408;2023-07-08T07:19:44;23.63;;;22.23;;
1995;SDS011;38556;47.068;15.408;2023-07-08T07:22:11;23.90;;;22.40;;
1995;SDS011;38556;47.068;15.408;2023-07-08T07:24:38;23.90;;;22.40;;
1995;SDS011;38556;47.068;15.408;2023-07-08T07:27:06;23.00;;;21.67;;
1995;SDS011;38556;47.068;15.408;2023-07-08T07:29:43;22.53;;;21.33;;
1995;SDS011;38556;47.068;15.408;2023-07-08T07:32:12;23.83;;;22.27;;
1995;SDS011;38556;47.068;15.408;2023-07-08T07:34:40;23.53;;;22.03;;
1995;SDS011;38556;47.068;15.408;2023-07-08T07:37:10;24.20;;;22.47;;
1995;SDS011;38556;47.068;15.408;2023-07-08T07:39:38;22.20;;;20.87;;
1995;SDS011;38556;47.068;15.408;2023-07-08T07:42:06;25.10;;;23.30;;
1995;SDS011;38556;47.068;15.408;2023-07-08T07:44:34;24.13;;;22.40;;
1995;SDS011;38556;47.068;15.408;2023-07-08T07:47:01;23.40;;;22.10;;
1995;SDS011;38556;47.068;15.408;2023-07-08T07:49:29;23.00;;;21.60;;
1995;SDS011;38556;47.068;15.408;2023-07-08T07:51:56;23.67;;;22.30;;
1995;SDS011;38556;47.068;15.408;2023-07-08T07:54:25;23.83;;;22.43;;
1995;SDS011;38556;47.068;15.408;2023-07-08T07:56:53;23.33;;;21.90;;
1995;SDS011;38556;47.068;15.408;2023-07-08T07:59:20;23.47;;;22.10;;
1995;SDS011;38556;47.068;15.408;2023-07-08T08:01:48;23.90;;;22.50;;
1995;SDS011;38556;47.068;15.408;2023-07-08T08:04:16;24.03;;;22.40;;
1995;SDS011;38556;47.068;15.408;2023-07-08T08:06:43;23.30;;;21.90;;
1995;SDS011;38556;47.068;15.408;2023-07-08T08:09:10;22.33;;;21.13;;
1995;SDS011;38556;47.068;15.408;2023-07-08T08:11:39;23.40;;;22.00;;
1995;SDS011;38556;47.068;15.408;2023-07-08T08:14:06;23.17;;;21.90;;
1995;SDS011;38556;47.068;15.408;2023-07-08T08:16:33;23.23;;;21.93;;
1995;SDS011;38556;47.068;15.408;2023-07-08T08:19:01;22.57;;;21.27;;
1995;SDS011;38556;47.068;15.408;2023-07-08T08:21:28;22.90;;;21.50;;
1995;SDS011;38556;47.068;15.408;2023-07-08T08:23:56;22.43;;;21.30;;
1995;SDS011;38556;47.068;15.408;2023-07-08T08:26:25;22.80;;;21.50;;
1995;SDS011;38556;47.068;15.408;2023-07-08T08:28:55;23.23;;;21.87;;
1995;SDS011;38556;47.068;15.408;2023-07-08T08:31:23;22.27;;;21.00;;
1995;SDS011;38556;47.068;15.408;2023-07-08T08:33:50;22.47;;;21.27;;
1995;SDS011;38556;47.068;15.408;2023-07-08T08:36:18;22.47;;;21.20;;
1995;SDS011;38556;47.068;15.408;2023-07-08T08:38:46;23.10;;;21.77;;
1995;SDS011;38556;47.068;15.408;2023-07-08T08:41:15;22.20;;;20.90;;
1995;SDS011;38556;47.068;15.408;2023-07-08T08:43:43;21.90;;;20.70;;
1995;SDS011;38556;47.068;15.408;2023-07-08T08:46:15;21.70;;;20.60;;
1995;SDS011;38556;47.068;15.408;2023-07-08T08:48:51;21.37;;;20.17;;
1995;SDS011;38556;47.068;15.408;2023-07-08T08:51:26;21.97;;;20.60;;
1995;SDS011;38556;47.068;15.408;2023-07-08T08:53:57;21.40;;;20.20;;
1995;SDS011;38556;47.068;15.408;2023-07-08T08:56:25;22.83;;;21.33;;
1995;SDS011;38556;47.068;15.408;2023-07-08T08:58:57;22.10;;;20.90;;
1995;SDS011;38556;47.068;15.408;2023-07-08T09:01:31;21.73;;;20.50;;
1995;SDS011;38556;47.068;15.408;2023-07-08T09:04:00;23.57;;;21.90;;
1995;SDS011;38556;47.068;15.408;2023-07-08T09:06:32;22.33;;;21.13;;
1995;SDS011;38556;47.068;15.408;2023-07-08T09:09:02;22.70;;;21.30;;
1995;SDS011;38556;47.068;15.408;2023-07-08T09:11:37;21.87;;;20.40;;
1995;SDS011;38556;47.068;15.408;2023-07-08T09:14:12;22.13;;;20.93;;
1995;SDS011;38556;47.068;15.408;2023-07-08T09:16:44;23.93;;;22.50;;
1995;SDS011;38556;47.068;15.408;2023-07-08T09:19:21;22.27;;;20.97;;
1995;SDS011;38556;47.068;15.408;2023-07-08T09:21:53;22.43;;;21.03;;
1995;SDS011;38556;47.068;15.408;2023-07-08T09:24:28;21.73;;;20.63;;
1995;SDS011;38556;47.068;15.408;2023-07-08T09:26:59;22.77;;;21.47;;
1995;SDS011;38556;47.068;15.408;2023-07-08T09:29:28;22.20;;;20.80;;
1995;SDS011;38556;47.068;15.408;2023-07-08T09:31:57;23.03;;;21.63;;
1995;SDS011;38556;47.068;15.408;2023-07-08T09:34:35;22.80;;;21.60;;
1995;SDS011;38556;47.068;15.408;2023-07-08T09:37:04;22.47;;;21.07;;
1995;SDS011;38556;47.068;15.408;2023-07-08T09:39:47;23.60;;;21.90;;
1995;SDS011;38556;47.068;15.408;2023-07-08T09:42:15;22.73;;;21.33;;
1995;SDS011;38556;47.068;15.408;2023-07-08T09:44:44;22.20;;;21.10;;
1995;SDS011;38556;47.068;15.408;2023-07-08T09:47:21;22.77;;;21.40;;
1995;SDS011;38556;47.068;15.408;2023-07-08T09:49:50;22.40;;;21.20;;
1995;SDS011;38556;47.068;15.408;2023-07-08T09:52:20;22.40;;;21.10;;
1995;SDS011;38556;47.068;15.408;2023-07-08T09:54:47;22.80;;;21.40;;
1995;SDS011;38556;47.068;15.408;2023-07-08T09:57:22;22.07;;;20.77;;
1995;SDS011;38556;47.068;15.408;2023-07-08T09:59:56;22.67;;;21.33;;
1995;SDS011;38556;47.068;15.408;2023-07-08T10:02:30;21.30;;;20.20;;
1995;SDS011;38556;47.068;15.408;2023-07-08T10:05:07;21.60;;;20.30;;
1995;SDS011;38556;47.068;15.408;2023-07-08T10:07:41;20.83;;;19.73;;
1995;SDS011;38556;47.068;15.408;2023-07-08T10:10:10;21.30;;;20.10;;
1995;SDS011;38556;47.068;15.408;2023-07-08T10:12:42;22.53;;;21.23;;
1995;SDS011;38556;47.068;15.408;2023-07-08T10:15:18;22.07;;;20.77;;
1995;SDS011;38556;47.068;15.408;2023-07-08T10:17:52;22.40;;;21.10;;
1995;SDS011;38556;47.068;15.408;2023-07-08T10:20:20;22.40;;;21.10;;
1995;SDS011;38556;47.068;15.408;2023-07-08T10:22:56;22.30;;;21.10;;
1995;SDS011;38556;47.068;15.408;2023-07-08T10:25:32;22.13;;;20.90;;
1995;SDS011;38556;47.068;15.408;2023-07-08T10:28:12;22.07;;;20.80;;
1995;SDS011;38556;47.068;15.408;2023-07-08T10:30:53;21.50;;;20.00;;
1995;SDS011;38556;47.068;15.408;2023-07-08T10:33:34;21.47;;;20.27;;
1995;SDS011;38556;47.068;15.408;2023-07-08T10:36:18;22.10;;;20.80;;
1995;SDS011;38556;47.068;15.408;2023-07-08T10:38:59;23.47;;;22.00;;
1995;SDS011;38556;47.068;15.408;2023-07-08T10:41:39;22.80;;;21.23;;
1995;SDS011;38556;47.068;15.408;2023-07-08T10:44:24;23.47;;;22.20;;
1995;SDS011;38556;47.068;15.408;2023-07-08T10:46:58;21.50;;;20.20;;
1995;SDS011;38556;47.068;15.408;2023-07-08T10:49:55;21.63;;;20.47;;
1995;SDS011;38556;47.068;15.408;2023-07-08T10:52:37;22.50;;;21.30;;
1995;SDS011;38556;47.068;15.408;2023-07-08T10:55:18;23.07;;;21.67;;
1995;SDS011;38556;47.068;15.408;2023-07-08T10:57:58;21.77;;;20.57;;
1995;SDS011;38556;47.068;15.408;2023-07-08T11:00:40;21.00;;;19.90;;
1995;SDS011;38556;47.068;15.408;2023-07-08T11:03:20;22.57;;;21.17;;
1995;SDS011;38556;47.068;15.408;2023-07-08T11:06:10;22.10;;;20.83;;
1995;SDS011;38556;47.068;15.408;2023-07-08T11:08:42;21.20;;;20.10;;
1995;SDS011;38556;47.068;15.408;2023-07-08T11:11:16;21.93;;;20.60;;
1995;SDS011;38556;47.068;15.408;2023-07-08T11:13:57;22.43;;;21.13;;
1995;SDS011;38556;47.068;15.408;2023-07-08T11:16:32;22.20;;;21.07;;
1995;SDS011;38556;47.068;15.408;2023-07-08T11:19:04;22.73;;;21.43;;
1995;SDS011;38556;47.068;15.408;2023-07-08T11:21:39;22.20;;;21.00;;
1995;SDS011;38556;47.068;15.408;2023-07-08T11:24:11;21.50;;;20.27;;
1995;SDS011;38556;47.068;15.408;2023-07-08T11:26:48;21.80;;;20.60;;
1995;SDS011;38556;47.068;15.408;2023-07-08T11:29:18;21.60;;;20.50;;
1995;SDS011;38556;47.068;15.408;2023-07-08T11:31:50;22.50;;;21.20;;
1995;SDS011;38556;47.068;15.408;2023-07-08T11:34:19;23.57;;;22.17;;
1995;SDS011;38556;47.068;15.408;2023-07-08T11:36:50;23.20;;;21.90;;
1995;SDS011;38556;47.068;15.408;2023-07-08T11:42:15;21.80;;;20.70;;
1995;SDS011;38556;47.068;15.408;2023-07-08T11:44:46;22.17;;;20.83;;
1995;SDS011;38556;47.068;15.408;2023-07-08T11:47:18;21.67;;;20.47;;
1995;SDS011;38556;47.068;15.408;2023-07-08T11:49:48;21.03;;;20.03;;
1995;SDS011;38556;47.068;15.408;2023-07-08T11:52:19;21.30;;;20.10;;
1995;SDS011;38556;47.068;15.408;2023-07-08T11:54:48;21.40;;;20.13;;
1995;SDS011;38556;47.068;15.408;2023-07-08T11:57:27;21.73;;;20.53;;
1995;SDS011;38556;47.068;15.408;2023-07-08T12:00:11;21.20;;;20.10;;
1995;SDS011;38556;47.068;15.408;2023-07-08T12:02:49;21.20;;;20.03;;
1995;SDS011;38556;47.068;15.408;2023-07-08T12:05:19;21.57;;;20.37;;
1995;SDS011;38556;47.068;15.408;2023-07-08T12:08:02;23.57;;;21.63;;
1995;SDS011;38556;47.068;15.408;2023-07-08T12:10:38;21.20;;;20.00;;
1995;SDS011;38556;47.068;15.408;2023-07-08T12:13:09;20.70;;;19.53;;
1995;SDS011;38556;47.068;15.408;2023-07-08T12:15:40;21.90;;;20.70;;
1995;SDS011;38556;47.068;15.408;2023-07-08T12:18:10;22.57;;;21.27;;
1995;SDS011;38556;47.068;15.408;2023-07-08T12:20:41;21.77;;;20.43;;
1995;SDS011;38556;47.068;15.408;2023-07-08T12:23:12;22.70;;;21.43;;
1995;SDS011;38556;47.068;15.408;2023-07-08T12:25:41;22.30;;;21.10;;
1995;SDS011;38556;47.068;15.408;2023-07-08T12:28:09;22.27;;;21.07;;
1995;SDS011;38556;47.068;15.408;2023-07-08T12:33:08;22.87;;;21.43;;
1995;SDS011;38556;47.068;15.408;2023-07-08T12:35:39;22.00;;;20.70;;
1995;SDS011;38556;47.068;15.408;2023-07-08T12:38:13;21.73;;;20.60;;
1995;SDS011;38556;47.068;15.408;2023-07-08T12:40:50;21.27;;;20.07;;
1995;SDS011;38556;47.068;15.408;2023-07-08T12:43:17;22.67;;;21.47;;
1995;SDS011;38556;47.068;15.408;2023-07-08T12:45:45;23.53;;;22.23;;
1995;SDS011;38556;47.068;15.408;2023-07-08T12:48:12;22.37;;;21.17;;
1995;SDS011;38556;47.068;15.408;2023-07-08T12:50:40;23.13;;;21.90;;
1995;SDS011;38556;47.068;15.408;2023-07-08T12:53:07;21.97;;;20.67;;
1995;SDS011;38556;47.068;15.408;2023-07-08T12:55:39;22.77;;;21.57;;
1995;SDS011;38556;47.068;15.408;2023-07-08T12:58:09;24.80;;;23.37;;
1995;SDS011;38556;47.068;15.408;2023-07-08T13:00:40;22.50;;;21.40;;
1995;SDS011;38556;47.068;15.408;2023-07-08T13:03:11;22.07;;;20.87;;
1995;SDS011;38556;47.068;15.408;2023-07-08T13:05:42;23.23;;;21.93;;
1995;SDS011;38556;47.068;15.408;2023-07-08T13:08:10;21.47;;;20.37;;
1995;SDS011;38556;47.068;15.408;2023-07-08T13:10:40;22.13;;;21.03;;
1995;SDS011;38556;47.068;15.408;2023-07-08T13:13:12;22.43;;;21.23;;
1995;SDS011;38556;47.068;15.408;2023-07-08T13:15:42;22.07;;;20.97;;
1995;SDS011;38556;47.068;15.408;2023-07-08T13:18:13;22.80;;;21.57;;
1995;SDS011;38556;47.068;15.408;2023-07-08T13:20:42;22.97;;;21.47;;
1995;SDS011;38556;47.068;15.408;2023-07-08T13:23:11;22.60;;;21.40;;
1995;SDS011;38556;47.068;15.408;2023-07-08T13:25:40;23.00;;;21.70;;
1995;SDS011;38556;47.068;15.408;2023-07-08T13:28:17;23.10;;;21.80;;
1995;SDS011;38556;47.068;15.408;2023-07-08T13:30:52;22.20;;;21.00;;
1995;SDS011;38556;47.068;15.408;2023-07-08T13:33:22;23.73;;;22.33;;
1995;SDS011;38556;47.068;15.408;2023-07-08T13:35:50;22.57;;;21.37;;
1995;SDS011;38556;47.068;15.408;2023-07-08T13:38:19;23.33;;;21.83;;
1995;SDS011;38556;47.068;15.408;2023-07-08T13:40:53;23.47;;;21.87;;
1995;SDS011;38556;47.068;15.408;2023-07-08T13:43:23;21.77;;;20.57;;
1995;SDS011;38556;47.068;15.408;2023-07-08T13:45:51;21.77;;;20.67;;
1995;SDS011;38556;47.068;15.408;2023-07-08T13:48:20;23.07;;;21.77;;
1995;SDS011;38556;47.068;15.408;2023-07-08T13:50:52;22.23;;;21.13;;
1995;SDS011;38556;47.068;15.408;2023-07-08T13:53:24;22.40;;;21.17;;
1995;SDS011;38556;47.068;15.408;2023-07-08T13:55:58;23.50;;;22.20;;
1995;SDS011;38556;47.068;15.408;2023-07-08T13:58:29;23.07;;;21.73;;
1995;SDS011;38556;47.068;15.408;2023-07-08T14:00:56;22.33;;;21.13;;
1995;SDS011;38556;47.068;15.408;2023-07-08T14:03:24;21.37;;;20.37;;
1995;SDS011;38556;47.068;15.408;2023-07-08T14:05:52;22.73;;;21.53;;
1995;SDS011;38556;47.068;15.408;2023-07-08T14:08:19;22.40;;;21.20;;
1995;SDS011;38556;47.068;15.408;2023-07-08T14:10:48;21.83;;;20.73;;
1995;SDS011;38556;47.068;15.408;2023-07-08T14:13:17;23.30;;;22.00;;
1995;SDS011;38556;47.068;15.408;2023-07-08T14:15:44;22.53;;;21.33;;
1995;SDS011;38556;47.068;15.408;2023-07-08T14:18:11;21.63;;;20.53;;
1995;SDS011;38556;47.068;15.408;2023-07-08T14:20:39;21.80;;;20.60;;
1995;SDS011;38556;47.068;15.408;2023-07-08T14:23:08;21.73;;;20.63;;
1995;SDS011;38556;47.068;15.408;2023-07-08T14:25:36;22.80;;;21.60;;
1995;SDS011;38556;47.068;15.408;2023-07-08T14:28:03;23.03;;;21.73;;
1995;SDS011;38556;47.068;15.408;2023-07-08T14:30:33;22.20;;;21.00;;
1995;SDS011;38556;47.068;15.408;2023-07-08T14:33:04;21.53;;;20.43;;
1995;SDS011;38556;47.068;15.408;2023-07-08T14:35:32;23.00;;;21.80;;
1995;SDS011;38556;47.068;15.408;2023-07-08T14:37:59;21.87;;;20.77;;
1995;SDS011;38556;47.068;15.408;2023-07-08T14:40:27;21.80;;;20.70;;
1995;SDS011;38556;47.068;15.408;2023-07-08T14:42:59;22.40;;;21.10;;
1995;SDS011;38556;47.068;15.408;2023-07-08T14:45:29;22.13;;;20.90;;